Terminal Aerodrome Forecast
Issued by NWS

Current Version | Previous Version | Graphics & Text | Print | Product List | Glossary On
Versions: 1 2 3 4 5 6 7 8 9 10 11 12 13 14 15 16 17 18 19 20 21 22 23 24 25 26 27 28 29 30
136
FTUS41 KILN 221734
TAFLUK
TAF
KLUK 221734Z 2218/2318 20011KT P6SM OVC250
     FM222000 19011KT 6SM -SHRA OVC035
     FM230200 18010KT P6SM VCSH OVC026
     FM230800 21009KT 4SM -SHRA OVC016=

USA.gov is the U.S. government's official web portal to all federal, state and local government web resources and services.